Thalia — FPCS — position and weather

sailwx.info

Track history (hours):
 
Tides and Currents Weather Stations Pressure Air Temp Water Temp Dewpoint Dewpoint Depression Visibility Wind Speed Wind Dir Waves Ship Positions

Oceanographic research ship Thalia (France)

Detailed information on ship capabilities available from University of Delaware's Ocean Information Center.

Last reported at 2017-Jul-19 08:31 UTC. Time now 2017-Jul-27 16:53 UTC.
Position N 47°58' W 004°40'.
Warning: this ship's position is 8 days out of date.

Length 25 m; beam 7 m.

MMSI: 227270000.

Date/timePositionNaut miles runAvg speedWind from/ knotsBaromVisibWave heightAir tempDewpointWater temp
2017-Jul-19 08:31N 47°58' W 004°40'3 8.7
2017-Jul-19 08:09N 48°00' W 004°43'1 8.0
2017-Jul-19 08:00N 48°01' W 004°45'3 6.1
2017-Jul-19 07:30N 48°04' W 004°46'5 9.1
2017-Jul-19 07:01N 48°09' W 004°46'510.0
2017-Jul-19 06:31N 48°14' W 004°45'5 9.9
2017-Jul-19 06:00N 48°18' W 004°47'5 9.5
2017-Jul-19 05:29N 48°23' W 004°48'510.1
2017-Jul-19 05:00N 48°28' W 004°50'510.4
2017-Jul-19 04:30N 48°33' W 004°49'610.9
2017-Jul-19 04:00N 48°38' W 004°45'10510.0
2017-Jul-18 17:24N 49°22' W 002°19'28 6.9
2017-Jul-18 13:21N 49°45' W 001°55'2 6.4
2017-Jul-18 13:00N 49°45' W 001°51'4 7.7
2017-Jul-18 12:30N 49°45' W 001°45'5 9.0
2017-Jul-18 12:00N 49°46' W 001°38'5 9.4
2017-Jul-18 11:30N 49°46' W 001°31'5 9.6
2017-Jul-18 11:00N 49°46' W 001°24'5 9.9
2017-Jul-18 10:30N 49°44' W 001°16'4711.2
2017-Jul-18 06:18N 49°20' W 000°14'4 1.7
2017-Jul-18 04:12N 49°16' W 000°15'0 0.0
2017-Jul-18 04:01N 49°16' W 000°15'0 0.0
2017-Jul-18 03:29N 49°16' W 000°15'0 0.0
2017-Jul-18 02:58N 49°16' W 000°15'0 0.0
2017-Jul-18 02:30N 49°16' W 000°15'0 0.0
2017-Jul-18 01:59N 49°16' W 000°15'0 0.0
2017-Jul-18 01:30N 49°16' W 000°15'0 0.0
2017-Jul-18 00:59N 49°16' W 000°15'0 0.0
2017-Jul-18 00:30N 49°16' W 000°15'0 0.0
2017-Jul-18 00:00N 49°16' W 000°15'0 0.0
2017-Jul-17 23:29N 49°16' W 000°15'0 0.0
2017-Jul-17 22:59N 49°16' W 000°15'0 0.0
2017-Jul-17 22:30N 49°16' W 000°15'0 0.0
2017-Jul-17 22:00N 49°16' W 000°15'0 0.0
2017-Jul-17 21:30N 49°16' W 000°15'0 0.0
2017-Jul-17 20:59N 49°16' W 000°15'0 0.0
2017-Jul-17 20:30N 49°16' W 000°15'0 0.0
2017-Jul-17 20:00N 49°16' W 000°15'0 0.0
2017-Jul-17 19:30N 49°16' W 000°15'0 0.0
2017-Jul-17 19:00N 49°16' W 000°15'0 0.0
2017-Jul-17 18:30N 49°16' W 000°15'0 0.0
2017-Jul-17 18:00N 49°16' W 000°15'0 0.0
2017-Jul-17 17:29N 49°16' W 000°15'0 0.0
2017-Jul-17 16:57N 49°16' W 000°15'0 0.0
2017-Jul-17 16:30N 49°16' W 000°15'0 0.0
2017-Jul-17 16:00N 49°16' W 000°15'0 0.0
2017-Jul-17 15:30N 49°16' W 000°15'0 0.0
2017-Jul-17 15:00N 49°16' W 000°15'0 0.0
2017-Jul-17 14:30N 49°16' W 000°15'0 0.0
2017-Jul-17 14:00N 49°16' W 000°15'0 0.0
2017-Jul-17 13:24N 49°16' W 000°15'0 0.0
2017-Jul-17 12:58N 49°16' W 000°15'0 0.0
2017-Jul-17 10:50N 49°16' W 000°15'0 0.0
2017-Jul-17 10:15N 49°16' W 000°15'0 0.0
2017-Jul-17 09:52N 49°16' W 000°15'0 0.0
2017-Jul-17 09:15N 49°16' W 000°15'0 0.0
2017-Jul-17 09:00N 49°16' W 000°15'0 0.0
2017-Jul-17 08:26N 49°16' W 000°15'0 0.0
2017-Jul-17 08:00N 49°16' W 000°15'  
2017-Jul-12 09:50N 49°26' W 000°15'2 6.5
2017-Jul-12 09:29N 49°24' W 000°15'4 9.0
2017-Jul-12 09:00N 49°20' W 000°14'3 4.6
2017-Jul-12 08:24N 49°17' W 000°15'0 0.3
2017-Jul-12 07:59N 49°17' W 000°15'0 0.7
2017-Jul-12 07:31N 49°16' W 000°15'0 0.0
2017-Jul-12 07:00N 49°16' W 000°15'0 0.0
2017-Jul-12 06:30N 49°16' W 000°15'0 0.0
2017-Jul-12 05:55N 49°16' W 000°15'0 0.0
2017-Jul-12 05:28N 49°16' W 000°15'0 0.0
2017-Jul-12 04:58N 49°16' W 000°15'0 0.0
2017-Jul-12 04:27N 49°16' W 000°15'0 0.0
2017-Jul-12 03:51N 49°16' W 000°15'0 0.0
2017-Jul-12 03:21N 49°16' W 000°15'0 0.0
2017-Jul-12 03:00N 49°16' W 000°15'0 0.0
2017-Jul-11 07:24N 49°16' W 000°15'0 0.0
2017-Jul-11 06:54N 49°16' W 000°15'  
Track history (hours):
 
Tides and Currents Weather Stations Pressure Air Temp Water Temp Dewpoint Dewpoint Depression Visibility Wind Speed Wind Dir Waves Ship Positions

Oceanographic research ship Thalia (France)

Detailed information on ship capabilities available from University of Delaware's Ocean Information Center.

Last reported at 2017-Jul-19 08:31 UTC. Time now 2017-Jul-27 16:53 UTC.
Position N 47°58' W 004°40'.
Warning: this ship's position is 8 days out of date.

Length 25 m; beam 7 m.

MMSI: 227270000.

Date/timePositionNaut miles runAvg speedWind from/ knotsBaromVisibWave heightAir tempDewpointWater temp
2017-Jul-19 08:31N 47°58' W 004°40'3 8.7
2017-Jul-19 08:09N 48°00' W 004°43'1 8.0
2017-Jul-19 08:00N 48°01' W 004°45'3 6.1
2017-Jul-19 07:30N 48°04' W 004°46'5 9.1
2017-Jul-19 07:01N 48°09' W 004°46'510.0
2017-Jul-19 06:31N 48°14' W 004°45'5 9.9
2017-Jul-19 06:00N 48°18' W 004°47'5 9.5
2017-Jul-19 05:29N 48°23' W 004°48'510.1
2017-Jul-19 05:00N 48°28' W 004°50'510.4
2017-Jul-19 04:30N 48°33' W 004°49'610.9
2017-Jul-19 04:00N 48°38' W 004°45'10510.0
2017-Jul-18 17:24N 49°22' W 002°19'28 6.9
2017-Jul-18 13:21N 49°45' W 001°55'2 6.4
2017-Jul-18 13:00N 49°45' W 001°51'4 7.7
2017-Jul-18 12:30N 49°45' W 001°45'5 9.0
2017-Jul-18 12:00N 49°46' W 001°38'5 9.4
2017-Jul-18 11:30N 49°46' W 001°31'5 9.6
2017-Jul-18 11:00N 49°46' W 001°24'5 9.9
2017-Jul-18 10:30N 49°44' W 001°16'4711.2
2017-Jul-18 06:18N 49°20' W 000°14'4 1.7
2017-Jul-18 04:12N 49°16' W 000°15'0 0.0
2017-Jul-18 04:01N 49°16' W 000°15'0 0.0
2017-Jul-18 03:29N 49°16' W 000°15'0 0.0
2017-Jul-18 02:58N 49°16' W 000°15'0 0.0
2017-Jul-18 02:30N 49°16' W 000°15'0 0.0
2017-Jul-18 01:59N 49°16' W 000°15'0 0.0
2017-Jul-18 01:30N 49°16' W 000°15'0 0.0
2017-Jul-18 00:59N 49°16' W 000°15'0 0.0
2017-Jul-18 00:30N 49°16' W 000°15'0 0.0
2017-Jul-18 00:00N 49°16' W 000°15'0 0.0
2017-Jul-17 23:29N 49°16' W 000°15'0 0.0
2017-Jul-17 22:59N 49°16' W 000°15'0 0.0
2017-Jul-17 22:30N 49°16' W 000°15'0 0.0
2017-Jul-17 22:00N 49°16' W 000°15'0 0.0
2017-Jul-17 21:30N 49°16' W 000°15'0 0.0
2017-Jul-17 20:59N 49°16' W 000°15'0 0.0
2017-Jul-17 20:30N 49°16' W 000°15'0 0.0
2017-Jul-17 20:00N 49°16' W 000°15'0 0.0
2017-Jul-17 19:30N 49°16' W 000°15'0 0.0
2017-Jul-17 19:00N 49°16' W 000°15'0 0.0
2017-Jul-17 18:30N 49°16' W 000°15'0 0.0
2017-Jul-17 18:00N 49°16' W 000°15'0 0.0
2017-Jul-17 17:29N 49°16' W 000°15'0 0.0
2017-Jul-17 16:57N 49°16' W 000°15'0 0.0
2017-Jul-17 16:30N 49°16' W 000°15'0 0.0
2017-Jul-17 16:00N 49°16' W 000°15'0 0.0
2017-Jul-17 15:30N 49°16' W 000°15'0 0.0
2017-Jul-17 15:00N 49°16' W 000°15'0 0.0
2017-Jul-17 14:30N 49°16' W 000°15'0 0.0
2017-Jul-17 14:00N 49°16' W 000°15'0 0.0
2017-Jul-17 13:24N 49°16' W 000°15'0 0.0
2017-Jul-17 12:58N 49°16' W 000°15'0 0.0
2017-Jul-17 10:50N 49°16' W 000°15'0 0.0
2017-Jul-17 10:15N 49°16' W 000°15'0 0.0
2017-Jul-17 09:52N 49°16' W 000°15'0 0.0
2017-Jul-17 09:15N 49°16' W 000°15'0 0.0
2017-Jul-17 09:00N 49°16' W 000°15'0 0.0
2017-Jul-17 08:26N 49°16' W 000°15'0 0.0
2017-Jul-17 08:00N 49°16' W 000°15'  
2017-Jul-12 09:50N 49°26' W 000°15'2 6.5
2017-Jul-12 09:29N 49°24' W 000°15'4 9.0
2017-Jul-12 09:00N 49°20' W 000°14'3 4.6
2017-Jul-12 08:24N 49°17' W 000°15'0 0.3
2017-Jul-12 07:59N 49°17' W 000°15'0 0.7
2017-Jul-12 07:31N 49°16' W 000°15'0 0.0
2017-Jul-12 07:00N 49°16' W 000°15'0 0.0
2017-Jul-12 06:30N 49°16' W 000°15'0 0.0
2017-Jul-12 05:55N 49°16' W 000°15'0 0.0
2017-Jul-12 05:28N 49°16' W 000°15'0 0.0
2017-Jul-12 04:58N 49°16' W 000°15'0 0.0
2017-Jul-12 04:27N 49°16' W 000°15'0 0.0
2017-Jul-12 03:51N 49°16' W 000°15'0 0.0
2017-Jul-12 03:21N 49°16' W 000°15'0 0.0
2017-Jul-12 03:00N 49°16' W 000°15'0 0.0
2017-Jul-11 07:24N 49°16' W 000°15'0 0.0
2017-Jul-11 06:54N 49°16' W 000°15'  

Dump ship's entire track history